This is the latest recevied weather packets stored in our database for station/object OE-11213. If no packets are shown the sender has not sent any weather packets the latest 10 day(s).
| Time | Temp. | Humidity | Pressure | Rain* | Wind** | Luminosity | Snow |
|---|---|---|---|---|---|---|---|
| 1787925330 | 33.33° C | 34% | 1009.4 hPa | 0 mm | - | 544 W/m² | - |
| 1787924503 | 31.11° C | 53% | 1009.8 hPa | 0 mm | - | 544 W/m² | - |
| 1787924130 | 30.56° C | 55% | 1010.1 hPa | 0 mm | - | 486 W/m² | - |
| 1787923530 | 30.56° C | 55% | 1010.1 hPa | 0 mm | - | 479 W/m² | - |
| 1787922701 | 30.56° C | 56% | 1010.2 hPa | 0 mm | - | 609 W/m² | - |
| 1787922329 | 30° C | 55% | 1010.5 hPa | 0 mm | - | 602 W/m² | - |
| 1787921730 | 29.44° C | 57% | 1010.8 hPa | 0 mm | - | 537 W/m² | - |
| 1787920902 | 29.44° C | 58% | 1010.8 hPa | 0 mm | - | 544 W/m² | - |
| 1787920530 | 29.44° C | 57% | 1010.8 hPa | 0 mm | - | 573 W/m² | - |
| 1787919930 | 28.89° C | 57% | 1011.1 hPa | 0 mm | - | 587 W/m² | - |
| 1787919103 | 28.89° C | 58% | 1010.9 hPa | 0 mm | - | 609 W/m² | - |
| 1787918729 | 28.89° C | 56% | 1011.2 hPa | 0 mm | - | 660 W/m² | - |
| 1787918129 | 27.78° C | 60% | 1011.3 hPa | 0 mm | - | 660 W/m² | - |
| 1787917302 | 27.78° C | 61% | 1011.5 hPa | 0 mm | - | 682 W/m² | - |
| 1787916930 | 27.22° C | 62% | 1011.6 hPa | 0 mm | - | 696 W/m² | - |
| 1787916330 | 26.67° C | 63% | 1012.1 hPa | 0 mm | - | 711 W/m² | - |
| 1787915502 | 26.67° C | 66% | 1012.1 hPa | 0 mm | - | 718 W/m² | - |
| 1787915130 | 26.11° C | 65% | 1012.4 hPa | 0 mm | - | 740 W/m² | - |
| 1787914530 | 26.11° C | 65% | 1012.6 hPa | 0 mm | - | 754 W/m² | - |
| 1787913703 | 26.11° C | 66% | 1012.6 hPa | 0 mm | - | 747 W/m² | - |
| 1787913330 | 25° C | 66% | 1012.8 hPa | 0 mm | - | 732 W/m² | - |
| 1787912730 | 25° C | 69% | 1013 hPa | 0 mm | - | 725 W/m² | - |
| 1787911903 | 25° C | 69% | 1013 hPa | 0 mm | - | 725 W/m² | - |
| 1787911530 | 25° C | 69% | 1013.4 hPa | 0 mm | - | 718 W/m² | - |
| 1787910929 | 24.44° C | 73% | 1013.8 hPa | 0 mm | - | 711 W/m² | - |
* Rain latest hour (hover to see other rain measurements)
** Current wind speed in m/s (hover to see current wind gust speed)